sensor_id;sensor_type;location;lat;lon;timestamp;pressure;altitude;pressure_sealevel;temperature;humidity
83563;BME280;73535;52.500;13.482;2024-01-27T00:01:39;102117.94;;;6.31;68.94
83563;BME280;73535;52.500;13.482;2024-01-27T00:04:05;102124.91;;;6.32;68.96
83563;BME280;73535;52.500;13.482;2024-01-27T00:06:30;102125.88;;;6.28;68.82
83563;BME280;73535;52.500;13.482;2024-01-27T00:08:56;102126.56;;;6.35;68.96
83563;BME280;73535;52.500;13.482;2024-01-27T00:11:21;102114.41;;;6.34;68.77
83563;BME280;73535;52.500;13.482;2024-01-27T00:13:48;102121.38;;;6.33;68.66
83563;BME280;73535;52.500;13.482;2024-01-27T00:16:13;102120.53;;;6.33;68.74
83563;BME280;73535;52.500;13.482;2024-01-27T00:18:39;102116.28;;;6.29;68.60
83563;BME280;73535;52.500;13.482;2024-01-27T00:21:05;102127.63;;;6.28;68.69
83563;BME280;73535;52.500;13.482;2024-01-27T00:23:31;102116.22;;;6.30;68.75
83563;BME280;73535;52.500;13.482;2024-01-27T00:25:57;102127.63;;;6.28;68.74
83563;BME280;73535;52.500;13.482;2024-01-27T00:28:22;102132.91;;;6.26;68.64
83563;BME280;73535;52.500;13.482;2024-01-27T00:30:47;102129.81;;;6.12;68.21
83563;BME280;73535;52.500;13.482;2024-01-27T00:33:13;102142.00;;;6.11;68.34
83563;BME280;73535;52.500;13.482;2024-01-27T00:35:38;102128.91;;;6.13;68.30
83563;BME280;73535;52.500;13.482;2024-01-27T00:38:04;102142.78;;;6.15;68.45
83563;BME280;73535;52.500;13.482;2024-01-27T00:40:29;102132.47;;;6.10;68.67
83563;BME280;73535;52.500;13.482;2024-01-27T00:42:54;102135.16;;;6.07;68.78
83563;BME280;73535;52.500;13.482;2024-01-27T00:45:19;102129.00;;;6.10;68.29
83563;BME280;73535;52.500;13.482;2024-01-27T00:47:45;102137.75;;;6.09;68.17
83563;BME280;73535;52.500;13.482;2024-01-27T00:50:10;102141.28;;;6.06;68.22
83563;BME280;73535;52.500;13.482;2024-01-27T00:52:36;102134.19;;;6.11;67.92
83563;BME280;73535;52.500;13.482;2024-01-27T00:55:01;102138.47;;;6.12;67.68
83563;BME280;73535;52.500;13.482;2024-01-27T00:57:26;102155.94;;;6.10;67.88
83563;BME280;73535;52.500;13.482;2024-01-27T00:59:52;102152.41;;;6.13;67.57
83563;BME280;73535;52.500;13.482;2024-01-27T01:02:17;102161.09;;;6.13;67.63
83563;BME280;73535;52.500;13.482;2024-01-27T01:04:42;102157.44;;;6.20;67.49
83563;BME280;73535;52.500;13.482;2024-01-27T01:07:07;102162.91;;;6.11;67.35
83563;BME280;73535;52.500;13.482;2024-01-27T01:09:33;102161.16;;;6.10;67.29
83563;BME280;73535;52.500;13.482;2024-01-27T01:11:58;102160.28;;;6.11;66.95
83563;BME280;73535;52.500;13.482;2024-01-27T01:14:23;102158.41;;;6.16;67.00
83563;BME280;73535;52.500;13.482;2024-01-27T01:16:49;102153.16;;;6.18;66.87
83563;BME280;73535;52.500;13.482;2024-01-27T01:19:14;102168.75;;;6.19;67.18
83563;BME280;73535;52.500;13.482;2024-01-27T01:21:39;102181.00;;;6.17;66.71
83563;BME280;73535;52.500;13.482;2024-01-27T01:24:05;102175.72;;;6.19;66.80
83563;BME280;73535;52.500;13.482;2024-01-27T01:26:30;102175.63;;;6.23;66.76
83563;BME280;73535;52.500;13.482;2024-01-27T01:28:55;102161.72;;;6.21;66.90
83563;BME280;73535;52.500;13.482;2024-01-27T01:31:20;102170.66;;;6.13;66.68
83563;BME280;73535;52.500;13.482;2024-01-27T01:33:45;102164.59;;;6.12;66.91
83563;BME280;73535;52.500;13.482;2024-01-27T01:36:11;102178.56;;;6.11;67.01
83563;BME280;73535;52.500;13.482;2024-01-27T01:38:36;102169.81;;;6.12;66.88
83563;BME280;73535;52.500;13.482;2024-01-27T01:41:01;102184.88;;;6.03;67.12
83563;BME280;73535;52.500;13.482;2024-01-27T01:43:27;102182.34;;;6.00;66.82
83563;BME280;73535;52.500;13.482;2024-01-27T01:45:52;102178.78;;;6.02;67.21
83563;BME280;73535;52.500;13.482;2024-01-27T01:48:19;102182.34;;;6.00;67.29
83563;BME280;73535;52.500;13.482;2024-01-27T01:50:45;102183.13;;;6.03;67.05
83563;BME280;73535;52.500;13.482;2024-01-27T01:53:10;102196.19;;;6.03;67.15
83563;BME280;73535;52.500;13.482;2024-01-27T01:55:37;102180.53;;;6.02;67.34
83563;BME280;73535;52.500;13.482;2024-01-27T01:58:02;102203.22;;;6.00;67.46
83563;BME280;73535;52.500;13.482;2024-01-27T02:00:28;102183.13;;;6.03;67.81
83563;BME280;73535;52.500;13.482;2024-01-27T02:02:53;102213.75;;;5.97;67.88
83563;BME280;73535;52.500;13.482;2024-01-27T02:05:18;102197.19;;;5.98;67.91
83563;BME280;73535;52.500;13.482;2024-01-27T02:07:43;102204.03;;;6.02;67.70
83563;BME280;73535;52.500;13.482;2024-01-27T02:10:13;102211.94;;;5.99;67.86
83563;BME280;73535;52.500;13.482;2024-01-27T02:12:40;102207.50;;;6.02;67.86
83563;BME280;73535;52.500;13.482;2024-01-27T02:15:09;102203.22;;;6.00;68.17
83563;BME280;73535;52.500;13.482;2024-01-27T02:17:35;102207.44;;;6.04;68.08
83563;BME280;73535;52.500;13.482;2024-01-27T02:20:00;102216.97;;;6.06;67.91
83563;BME280;73535;52.500;13.482;2024-01-27T02:22:25;102229.09;;;6.07;68.24
83563;BME280;73535;52.500;13.482;2024-01-27T02:24:50;102229.88;;;6.11;68.16
83563;BME280;73535;52.500;13.482;2024-01-27T02:27:16;102229.03;;;6.10;67.91
83563;BME280;73535;52.500;13.482;2024-01-27T02:29:41;102233.38;;;6.10;68.37
83563;BME280;73535;52.500;13.482;2024-01-27T02:32:06;102230.84;;;6.08;68.46
83563;BME280;73535;52.500;13.482;2024-01-27T02:34:31;102237.66;;;6.12;68.45
83563;BME280;73535;52.500;13.482;2024-01-27T02:36:57;102236.63;;;6.19;68.43
83563;BME280;73535;52.500;13.482;2024-01-27T02:39:22;102231.53;;;6.15;68.32
83563;BME280;73535;52.500;13.482;2024-01-27T02:41:47;102217.56;;;6.16;68.59
83563;BME280;73535;52.500;13.482;2024-01-27T02:44:12;102243.81;;;6.11;68.86
83563;BME280;73535;52.500;13.482;2024-01-27T02:46:38;102230.75;;;6.11;68.83
83563;BME280;73535;52.500;13.482;2024-01-27T02:49:03;102243.81;;;6.10;69.02
83563;BME280;73535;52.500;13.482;2024-01-27T02:51:28;102242.94;;;6.11;69.09
83563;BME280;73535;52.500;13.482;2024-01-27T02:53:53;102242.13;;;6.09;68.83
83563;BME280;73535;52.500;13.482;2024-01-27T02:56:19;102231.78;;;6.04;69.14
83563;BME280;73535;52.500;13.482;2024-01-27T02:58:44;102251.06;;;6.00;69.41
83563;BME280;73535;52.500;13.482;2024-01-27T03:01:09;102255.22;;;6.07;69.33
83563;BME280;73535;52.500;13.482;2024-01-27T03:03:35;102265.72;;;6.04;69.57
83563;BME280;73535;52.500;13.482;2024-01-27T03:06:01;102257.97;;;6.01;69.94
83563;BME280;73535;52.500;13.482;2024-01-27T03:08:26;102253.53;;;6.05;69.52
83563;BME280;73535;52.500;13.482;2024-01-27T03:10:51;102265.66;;;6.07;69.69
83563;BME280;73535;52.500;13.482;2024-01-27T03:13:16;102264.94;;;6.01;69.23
83563;BME280;73535;52.500;13.482;2024-01-27T03:15:43;102261.44;;;6.02;69.43
83563;BME280;73535;52.500;13.482;2024-01-27T03:18:09;102258.91;;;5.99;69.58
83563;BME280;73535;52.500;13.482;2024-01-27T03:20:34;102266.09;;;5.89;69.92
83563;BME280;73535;52.500;13.482;2024-01-27T03:22:59;102272.22;;;5.88;69.53
83563;BME280;73535;52.500;13.482;2024-01-27T03:25:24;102268.81;;;5.86;69.71
83563;BME280;73535;52.500;13.482;2024-01-27T03:27:51;102267.00;;;5.88;69.99
83563;BME280;73535;52.500;13.482;2024-01-27T03:30:16;102267.41;;;5.72;70.15
83563;BME280;73535;52.500;13.482;2024-01-27T03:32:41;102275.22;;;5.72;70.38
83563;BME280;73535;52.500;13.482;2024-01-27T03:35:07;102281.34;;;5.69;70.58
83563;BME280;73535;52.500;13.482;2024-01-27T03:37:32;102277.97;;;5.65;70.51
83563;BME280;73535;52.500;13.482;2024-01-27T03:39:58;102268.56;;;5.60;70.77
83563;BME280;73535;52.500;13.482;2024-01-27T03:42:23;102267.63;;;5.61;70.85
83563;BME280;73535;52.500;13.482;2024-01-27T03:44:49;102271.38;;;5.51;71.14
83563;BME280;73535;52.500;13.482;2024-01-27T03:47:14;102254.81;;;5.52;71.21
83563;BME280;73535;52.500;13.482;2024-01-27T03:49:39;102266.97;;;5.53;71.23
83563;BME280;73535;52.500;13.482;2024-01-27T03:52:05;102272.19;;;5.53;71.21
83563;BME280;73535;52.500;13.482;2024-01-27T03:54:30;102275.66;;;5.53;71.31
83563;BME280;73535;52.500;13.482;2024-01-27T03:56:55;102292.28;;;5.48;71.57
83563;BME280;73535;52.500;13.482;2024-01-27T03:59:21;102280.13;;;5.47;71.55
83563;BME280;73535;52.500;13.482;2024-01-27T04:01:47;102291.69;;;5.37;71.95
83563;BME280;73535;52.500;13.482;2024-01-27T04:04:12;102289.16;;;5.34;72.12
83563;BME280;73535;52.500;13.482;2024-01-27T04:06:39;102282.13;;;5.36;72.18
83563;BME280;73535;52.500;13.482;2024-01-27T04:09:04;102295.19;;;5.34;72.52
83563;BME280;73535;52.500;13.482;2024-01-27T04:11:33;102300.38;;;5.36;72.41
83563;BME280;73535;52.500;13.482;2024-01-27T04:13:58;102304.78;;;5.34;72.33
83563;BME280;73535;52.500;13.482;2024-01-27T04:16:24;102328.31;;;5.29;72.79
83563;BME280;73535;52.500;13.482;2024-01-27T04:18:49;102308.38;;;5.28;72.68
83563;BME280;73535;52.500;13.482;2024-01-27T04:21:14;102324.03;;;5.28;72.88
83563;BME280;73535;52.500;13.482;2024-01-27T04:23:40;102316.16;;;5.30;72.85
83563;BME280;73535;52.500;13.482;2024-01-27T04:26:05;102319.56;;;5.32;73.24
83563;BME280;73535;52.500;13.482;2024-01-27T04:28:31;102323.03;;;5.34;72.91
83563;BME280;73535;52.500;13.482;2024-01-27T04:30:56;102318.81;;;5.28;72.81
83563;BME280;73535;52.500;13.482;2024-01-27T04:33:22;102324.09;;;5.25;73.15
83563;BME280;73535;52.500;13.482;2024-01-27T04:35:47;102341.34;;;5.29;73.24
83563;BME280;73535;52.500;13.482;2024-01-27T04:38:12;102351.84;;;5.28;73.21
83563;BME280;73535;52.500;13.482;2024-01-27T04:40:38;102359.78;;;5.22;73.67
83563;BME280;73535;52.500;13.482;2024-01-27T04:43:03;102349.16;;;5.31;73.03
83563;BME280;73535;52.500;13.482;2024-01-27T04:45:28;102358.63;;;5.35;73.31
83563;BME280;73535;52.500;13.482;2024-01-27T04:47:54;102357.72;;;5.36;73.08
83563;BME280;73535;52.500;13.482;2024-01-27T04:50:20;102359.47;;;5.37;73.43
83563;BME280;73535;52.500;13.482;2024-01-27T04:52:45;102375.00;;;5.41;73.52
83563;BME280;73535;52.500;13.482;2024-01-27T04:55:11;102384.50;;;5.44;73.29
83563;BME280;73535;52.500;13.482;2024-01-27T04:57:36;102381.88;;;5.45;73.34
83563;BME280;73535;52.500;13.482;2024-01-27T05:00:01;102370.56;;;5.45;73.59
83563;BME280;73535;52.500;13.482;2024-01-27T05:02:27;102383.63;;;5.45;73.44
83563;BME280;73535;52.500;13.482;2024-01-27T05:04:52;102391.44;;;5.45;73.38
83563;BME280;73535;52.500;13.482;2024-01-27T05:07:18;102382.63;;;5.50;73.45
83563;BME280;73535;52.500;13.482;2024-01-27T05:09:43;102392.19;;;5.50;73.47
83563;BME280;73535;52.500;13.482;2024-01-27T05:12:08;102400.91;;;5.49;73.49
83563;BME280;73535;52.500;13.482;2024-01-27T05:14:34;102400.84;;;5.52;73.52
83563;BME280;73535;52.500;13.482;2024-01-27T05:16:59;102396.47;;;5.52;73.50
83563;BME280;73535;52.500;13.482;2024-01-27T05:19:24;102390.34;;;5.55;73.47
83563;BME280;73535;52.500;13.482;2024-01-27T05:21:50;102400.91;;;5.49;73.75
83563;BME280;73535;52.500;13.482;2024-01-27T05:24:15;102394.72;;;5.53;73.66
83563;BME280;73535;52.500;13.482;2024-01-27T05:26:40;102409.56;;;5.51;73.97
83563;BME280;73535;52.500;13.482;2024-01-27T05:29:05;102402.56;;;5.53;73.57
83563;BME280;73535;52.500;13.482;2024-01-27T05:31:31;102401.50;;;5.61;73.49
83563;BME280;73535;52.500;13.482;2024-01-27T05:33:56;102413.03;;;5.51;73.52
83563;BME280;73535;52.500;13.482;2024-01-27T05:36:21;102408.56;;;5.56;73.67
83563;BME280;73535;52.500;13.482;2024-01-27T05:38:47;102414.72;;;5.54;73.70
83563;BME280;73535;52.500;13.482;2024-01-27T05:41:12;102409.44;;;5.57;73.69
83563;BME280;73535;52.500;13.482;2024-01-27T05:43:37;102423.34;;;5.56;73.56
83563;BME280;73535;52.500;13.482;2024-01-27T05:46:03;102408.75;;;5.47;73.48
83563;BME280;73535;52.500;13.482;2024-01-27T05:48:28;102419.09;;;5.52;73.76
83563;BME280;73535;52.500;13.482;2024-01-27T05:51:00;102417.31;;;5.54;73.50
83563;BME280;73535;52.500;13.482;2024-01-27T05:53:26;102427.66;;;5.58;73.56
83563;BME280;73535;52.500;13.482;2024-01-27T05:55:52;102419.81;;;5.60;73.30
83563;BME280;73535;52.500;13.482;2024-01-27T05:58:20;102418.97;;;5.58;73.41
83563;BME280;73535;52.500;13.482;2024-01-27T06:00:48;102433.69;;;5.60;73.51
83563;BME280;73535;52.500;13.482;2024-01-27T06:03:14;102434.53;;;5.62;73.50
83563;BME280;73535;52.500;13.482;2024-01-27T06:05:41;102444.97;;;5.61;73.50
83563;BME280;73535;52.500;13.482;2024-01-27T06:08:06;102452.78;;;5.62;73.46
83563;BME280;73535;52.500;13.482;2024-01-27T06:10:32;102444.03;;;5.65;73.27
83563;BME280;73535;52.500;13.482;2024-01-27T06:12:57;102452.53;;;5.75;73.16
83563;BME280;73535;52.500;13.482;2024-01-27T06:15:22;102458.53;;;5.78;73.16
83563;BME280;73535;52.500;13.482;2024-01-27T06:17:48;102456.78;;;5.79;73.21
83563;BME280;73535;52.500;13.482;2024-01-27T06:20:13;102469.81;;;5.80;73.20
83563;BME280;73535;52.500;13.482;2024-01-27T06:22:38;102461.97;;;5.80;73.17
83563;BME280;73535;52.500;13.482;2024-01-27T06:25:04;102461.00;;;5.84;73.01
83563;BME280;73535;52.500;13.482;2024-01-27T06:27:29;102479.31;;;5.83;73.04
83563;BME280;73535;52.500;13.482;2024-01-27T06:29:55;102474.06;;;5.86;72.92
83563;BME280;73535;52.500;13.482;2024-01-27T06:32:20;102479.31;;;5.81;73.09
83563;BME280;73535;52.500;13.482;2024-01-27T06:34:45;102485.41;;;5.83;73.40
83563;BME280;73535;52.500;13.482;2024-01-27T06:37:11;102476.66;;;5.84;73.20
83563;BME280;73535;52.500;13.482;2024-01-27T06:39:36;102486.19;;;5.87;73.26
83563;BME280;73535;52.500;13.482;2024-01-27T06:42:01;102500.94;;;5.89;73.43
83563;BME280;73535;52.500;13.482;2024-01-27T06:44:26;102507.00;;;5.90;73.28
83563;BME280;73535;52.500;13.482;2024-01-27T06:46:52;102501.84;;;5.88;73.67
83563;BME280;73535;52.500;13.482;2024-01-27T06:49:17;102499.16;;;5.91;73.72
83563;BME280;73535;52.500;13.482;2024-01-27T06:51:43;102508.69;;;5.92;73.48
83563;BME280;73535;52.500;13.482;2024-01-27T06:54:08;102520.78;;;5.98;73.39
83563;BME280;73535;52.500;13.482;2024-01-27T06:56:34;102540.91;;;5.91;73.63
83563;BME280;73535;52.500;13.482;2024-01-27T06:58:59;102532.19;;;5.92;73.75
83563;BME280;73535;52.500;13.482;2024-01-27T07:01:24;102536.56;;;5.90;73.57
83563;BME280;73535;52.500;13.482;2024-01-27T07:03:49;102528.72;;;5.92;73.86
83563;BME280;73535;52.500;13.482;2024-01-27T07:06:14;102546.19;;;5.88;73.89
83563;BME280;73535;52.500;13.482;2024-01-27T07:08:40;102548.09;;;5.79;74.10
83563;BME280;73535;52.500;13.482;2024-01-27T07:11:05;102536.66;;;5.84;73.89
83563;BME280;73535;52.500;13.482;2024-01-27T07:13:30;102536.63;;;5.89;73.83
83563;BME280;73535;52.500;13.482;2024-01-27T07:15:56;102550.44;;;5.92;73.69
83563;BME280;73535;52.500;13.482;2024-01-27T07:18:22;102560.94;;;5.91;73.93
83563;BME280;73535;52.500;13.482;2024-01-27T07:20:47;102556.38;;;6.00;73.76
83563;BME280;73535;52.500;13.482;2024-01-27T07:23:13;102549.38;;;6.02;73.67
83563;BME280;73535;52.500;13.482;2024-01-27T07:25:38;102569.44;;;5.99;73.67
83563;BME280;73535;52.500;13.482;2024-01-27T07:28:03;102581.69;;;5.97;73.87
83563;BME280;73535;52.500;13.482;2024-01-27T07:30:29;102580.00;;;5.94;73.80
83563;BME280;73535;52.500;13.482;2024-01-27T07:32:55;102572.00;;;6.02;73.69
83563;BME280;73535;52.500;13.482;2024-01-27T07:35:21;102580.69;;;6.02;73.49
83563;BME280;73535;52.500;13.482;2024-01-27T07:37:46;102582.38;;;6.06;73.54
83563;BME280;73535;52.500;13.482;2024-01-27T07:40:11;102574.38;;;6.12;73.57
83563;BME280;73535;52.500;13.482;2024-01-27T07:42:37;102591.00;;;6.08;73.44
83563;BME280;73535;52.500;13.482;2024-01-27T07:45:02;102608.31;;;6.12;73.41
83563;BME280;73535;52.500;13.482;2024-01-27T07:47:27;102599.59;;;6.13;73.23
83563;BME280;73535;52.500;13.482;2024-01-27T07:49:52;102604.81;;;6.13;73.14
83563;BME280;73535;52.500;13.482;2024-01-27T07:52:18;102616.03;;;6.18;73.43
83563;BME280;73535;52.500;13.482;2024-01-27T07:54:44;102618.63;;;6.18;73.27
83563;BME280;73535;52.500;13.482;2024-01-27T07:57:09;102611.59;;;6.23;73.23
83563;BME280;73535;52.500;13.482;2024-01-27T07:59:34;102617.75;;;6.21;73.15
83563;BME280;73535;52.500;13.482;2024-01-27T08:01:59;102612.53;;;6.21;73.38
83563;BME280;73535;52.500;13.482;2024-01-27T08:04:25;102625.66;;;6.16;73.21
83563;BME280;73535;52.500;13.482;2024-01-27T08:06:51;102621.38;;;6.12;73.21
83563;BME280;73535;52.500;13.482;2024-01-27T08:09:16;102618.63;;;6.18;73.04
83563;BME280;73535;52.500;13.482;2024-01-27T08:11:42;102642.22;;;6.14;73.57
83563;BME280;73535;52.500;13.482;2024-01-27T08:14:07;102629.94;;;6.20;73.54
83563;BME280;73535;52.500;13.482;2024-01-27T08:16:32;102629.81;;;6.27;73.15
83563;BME280;73535;52.500;13.482;2024-01-27T08:18:58;102616.75;;;6.27;72.92
83563;BME280;73535;52.500;13.482;2024-01-27T08:21:23;102633.41;;;6.21;73.06
83563;BME280;73535;52.500;13.482;2024-01-27T08:23:48;102630.75;;;6.22;73.20
83563;BME280;73535;52.500;13.482;2024-01-27T08:26:13;102636.03;;;6.19;73.49
83563;BME280;73535;52.500;13.482;2024-01-27T08:28:39;102635.09;;;6.23;73.23
83563;BME280;73535;52.500;13.482;2024-01-27T08:31:04;102638.53;;;6.25;72.88
83563;BME280;73535;52.500;13.482;2024-01-27T08:33:29;102644.50;;;6.31;72.89
83563;BME280;73535;52.500;13.482;2024-01-27T08:35:55;102653.19;;;6.31;72.91
83563;BME280;73535;52.500;13.482;2024-01-27T08:38:20;102649.59;;;6.37;73.01
83563;BME280;73535;52.500;13.482;2024-01-27T08:40:45;102652.19;;;6.38;72.92
83563;BME280;73535;52.500;13.482;2024-01-27T08:43:11;102660.81;;;6.42;72.63
83563;BME280;73535;52.500;13.482;2024-01-27T08:45:39;102672.22;;;6.38;72.73
83563;BME280;73535;52.500;13.482;2024-01-27T08:48:05;102640.94;;;6.35;73.01
83563;BME280;73535;52.500;13.482;2024-01-27T08:50:31;102654.69;;;6.43;72.76
83563;BME280;73535;52.500;13.482;2024-01-27T08:52:56;102667.81;;;6.41;72.55
83563;BME280;73535;52.500;13.482;2024-01-27T08:55:21;102667.75;;;6.43;72.42
83563;BME280;73535;52.500;13.482;2024-01-27T08:57:49;102665.03;;;6.47;72.31
83563;BME280;73535;52.500;13.482;2024-01-27T09:00:14;102672.09;;;6.44;72.62
83563;BME280;73535;52.500;13.482;2024-01-27T09:02:41;102671.28;;;6.40;72.78
83563;BME280;73535;52.500;13.482;2024-01-27T09:05:06;102667.00;;;6.38;72.80
83563;BME280;73535;52.500;13.482;2024-01-27T09:07:33;102668.56;;;6.45;72.80
83563;BME280;73535;52.500;13.482;2024-01-27T09:09:58;102674.59;;;6.50;72.81
83563;BME280;73535;52.500;13.482;2024-01-27T09:12:23;102665.84;;;6.51;72.37
83563;BME280;73535;52.500;13.482;2024-01-27T09:14:48;102668.31;;;6.58;72.04
83563;BME280;73535;52.500;13.482;2024-01-27T09:17:14;102670.88;;;6.60;72.20
83563;BME280;73535;52.500;13.482;2024-01-27T09:19:39;102683.91;;;6.61;72.15
83563;BME280;73535;52.500;13.482;2024-01-27T09:22:04;102674.31;;;6.62;72.02
83563;BME280;73535;52.500;13.482;2024-01-27T09:24:29;102681.19;;;6.67;72.14
83563;BME280;73535;52.500;13.482;2024-01-27T09:26:54;102680.31;;;6.67;71.86
83563;BME280;73535;52.500;13.482;2024-01-27T09:29:20;102691.63;;;6.67;71.85
83563;BME280;73535;52.500;13.482;2024-01-27T09:31:46;102683.69;;;6.72;71.92
83563;BME280;73535;52.500;13.482;2024-01-27T09:34:11;102682.75;;;6.74;71.66
83563;BME280;73535;52.500;13.482;2024-01-27T09:36:36;102688.84;;;6.75;71.83
83563;BME280;73535;52.500;13.482;2024-01-27T09:39:02;102696.56;;;6.79;71.54
83563;BME280;73535;52.500;13.482;2024-01-27T09:41:30;102702.66;;;6.80;71.30
83563;BME280;73535;52.500;13.482;2024-01-27T09:43:59;102706.09;;;6.82;71.29
83563;BME280;73535;52.500;13.482;2024-01-27T09:46:25;102702.53;;;6.86;71.21
83563;BME280;73535;52.500;13.482;2024-01-27T09:48:51;102702.41;;;6.92;71.00
83563;BME280;73535;52.500;13.482;2024-01-27T09:51:18;102720.75;;;6.91;70.80
83563;BME280;73535;52.500;13.482;2024-01-27T09:53:44;102726.13;;;6.83;70.97
83563;BME280;73535;52.500;13.482;2024-01-27T09:56:11;102721.63;;;6.90;71.04
83563;BME280;73535;52.500;13.482;2024-01-27T09:58:37;102731.28;;;6.86;71.10
83563;BME280;73535;52.500;13.482;2024-01-27T10:01:02;102715.53;;;6.89;70.84
83563;BME280;73535;52.500;13.482;2024-01-27T10:03:28;102731.16;;;6.92;70.83
83563;BME280;73535;52.500;13.482;2024-01-27T10:05:57;102727.59;;;6.96;70.70
83563;BME280;73535;52.500;13.482;2024-01-27T10:08:23;102733.03;;;6.86;70.76
83563;BME280;73535;52.500;13.482;2024-01-27T10:10:54;102723.56;;;6.81;70.73
83563;BME280;73535;52.500;13.482;2024-01-27T10:13:19;102720.81;;;6.86;70.32
83563;BME280;73535;52.500;13.482;2024-01-27T10:15:59;102717.94;;;6.98;70.29
83563;BME280;73535;52.500;13.482;2024-01-27T10:18:24;102730.22;;;6.96;70.09
83563;BME280;73535;52.500;13.482;2024-01-27T10:20:49;102724.88;;;7.01;70.27
83563;BME280;73535;52.500;13.482;2024-01-27T10:23:15;102734.50;;;6.99;69.84
83563;BME280;73535;52.500;13.482;2024-01-27T10:25:41;102724.03;;;6.99;69.94
83563;BME280;73535;52.500;13.482;2024-01-27T10:28:07;102725.78;;;6.98;69.84
83563;BME280;73535;52.500;13.482;2024-01-27T10:30:33;102724.75;;;7.05;69.33
83563;BME280;73535;52.500;13.482;2024-01-27T10:32:58;102730.06;;;7.02;69.36
83563;BME280;73535;52.500;13.482;2024-01-27T10:35:24;102737.06;;;7.00;69.59
83563;BME280;73535;52.500;13.482;2024-01-27T10:37:53;102728.28;;;7.03;69.70
83563;BME280;73535;52.500;13.482;2024-01-27T10:40:18;102729.97;;;7.05;69.58
83563;BME280;73535;52.500;13.482;2024-01-27T10:42:44;102741.16;;;7.12;69.47
83563;BME280;73535;52.500;13.482;2024-01-27T10:45:11;102763.16;;;7.03;69.38
83563;BME280;73535;52.500;13.482;2024-01-27T10:47:38;102737.00;;;7.05;69.10
83563;BME280;73535;52.500;13.482;2024-01-27T10:50:08;102740.31;;;7.11;69.43
83563;BME280;73535;52.500;13.482;2024-01-27T10:52:38;102743.03;;;7.07;69.55
83563;BME280;73535;52.500;13.482;2024-01-27T10:55:05;102735.31;;;7.02;69.50
83563;BME280;73535;52.500;13.482;2024-01-27T10:57:36;102748.31;;;7.04;69.51
83563;BME280;73535;52.500;13.482;2024-01-27T11:00:04;102755.28;;;7.05;69.88
83563;BME280;73535;52.500;13.482;2024-01-27T11:02:34;102755.09;;;7.14;69.87
83563;BME280;73535;52.500;13.482;2024-01-27T11:05:02;102743.84;;;7.10;70.07
83563;BME280;73535;52.500;13.482;2024-01-27T11:07:30;102750.81;;;7.10;70.43
83563;BME280;73535;52.500;13.482;2024-01-27T11:09:57;102746.38;;;7.13;70.17
83563;BME280;73535;52.500;13.482;2024-01-27T11:12:22;102749.63;;;7.23;70.00
83563;BME280;73535;52.500;13.482;2024-01-27T11:14:48;102749.69;;;7.20;69.63
83563;BME280;73535;52.500;13.482;2024-01-27T11:17:14;102758.34;;;7.23;69.69
83563;BME280;73535;52.500;13.482;2024-01-27T11:19:40;102752.03;;;7.32;69.58
83563;BME280;73535;52.500;13.482;2024-01-27T11:22:06;102747.66;;;7.34;70.17
83563;BME280;73535;52.500;13.482;2024-01-27T11:24:31;102776.66;;;7.23;70.14
83563;BME280;73535;52.500;13.482;2024-01-27T11:27:03;102763.63;;;7.22;69.86
83563;BME280;73535;52.500;13.482;2024-01-27T11:29:29;102757.44;;;7.24;69.65
83563;BME280;73535;52.500;13.482;2024-01-27T11:31:57;102760.09;;;7.23;69.55
83563;BME280;73535;52.500;13.482;2024-01-27T11:34:22;102754.78;;;7.27;69.53
83563;BME280;73535;52.500;13.482;2024-01-27T11:36:48;102766.25;;;7.20;69.64
83563;BME280;73535;52.500;13.482;2024-01-27T11:39:26;102762.81;;;7.18;69.76
83563;BME280;73535;52.500;13.482;2024-01-27T11:41:52;102772.16;;;7.30;69.76
83563;BME280;73535;52.500;13.482;2024-01-27T11:44:18;102769.66;;;7.25;69.87
83563;BME280;73535;52.500;13.482;2024-01-27T11:46:44;102774.97;;;7.21;69.97
83563;BME280;73535;52.500;13.482;2024-01-27T11:49:15;102779.44;;;7.14;69.95
83563;BME280;73535;52.500;13.482;2024-01-27T11:51:41;102778.69;;;7.11;70.53
83563;BME280;73535;52.500;13.482;2024-01-27T11:54:06;102784.75;;;7.11;70.50
83563;BME280;73535;52.500;13.482;2024-01-27T11:56:31;102789.03;;;7.15;71.07
83563;BME280;73535;52.500;13.482;2024-01-27T11:58:57;102786.53;;;7.09;71.09
83563;BME280;73535;52.500;13.482;2024-01-27T12:01:22;102786.47;;;7.14;71.00
83563;BME280;73535;52.500;13.482;2024-01-27T12:03:48;102802.09;;;7.15;71.10
83563;BME280;73535;52.500;13.482;2024-01-27T12:06:13;102789.78;;;7.20;70.97
83563;BME280;73535;52.500;13.482;2024-01-27T12:08:40;102809.00;;;7.19;71.19
83563;BME280;73535;52.500;13.482;2024-01-27T12:11:11;102816.09;;;7.13;71.02
83563;BME280;73535;52.500;13.482;2024-01-27T12:13:36;102818.69;;;7.14;70.65
83563;BME280;73535;52.500;13.482;2024-01-27T12:16:02;102817.84;;;7.12;70.86
83563;BME280;73535;52.500;13.482;2024-01-27T12:18:27;102804.72;;;7.15;70.77
83563;BME280;73535;52.500;13.482;2024-01-27T12:20:56;102814.31;;;7.15;71.04
83563;BME280;73535;52.500;13.482;2024-01-27T12:23:22;102815.00;;;7.24;70.72
83563;BME280;73535;52.500;13.482;2024-01-27T12:25:55;102824.44;;;7.30;70.48
83563;BME280;73535;52.500;13.482;2024-01-27T12:28:22;102838.47;;;7.26;70.46
83563;BME280;73535;52.500;13.482;2024-01-27T12:30:47;102835.84;;;7.27;70.39
83563;BME280;73535;52.500;13.482;2024-01-27T12:33:13;102848.94;;;7.26;70.54
83563;BME280;73535;52.500;13.482;2024-01-27T12:35:39;102840.41;;;7.18;70.52
83563;BME280;73535;52.500;13.482;2024-01-27T12:38:07;102844.06;;;7.09;70.51
83563;BME280;73535;52.500;13.482;2024-01-27T12:40:32;102847.84;;;6.95;71.07
83563;BME280;73535;52.500;13.482;2024-01-27T12:42:57;102846.97;;;6.94;71.00